sensor_id;sensor_type;location;lat;lon;timestamp;temperature;humidity
19952;DHT22;10137;49.406;19.484;2022-07-23T00:01:59;17.00;99.90
19952;DHT22;10137;49.406;19.484;2022-07-23T00:04:26;17.00;99.90
19952;DHT22;10137;49.406;19.484;2022-07-23T00:06:54;17.10;99.90
19952;DHT22;10137;49.406;19.484;2022-07-23T00:09:21;17.10;99.90
19952;DHT22;10137;49.406;19.484;2022-07-23T00:11:48;17.10;99.90
19952;DHT22;10137;49.406;19.484;2022-07-23T00:14:15;17.20;99.90
19952;DHT22;10137;49.406;19.484;2022-07-23T00:16:42;17.30;99.90
19952;DHT22;10137;49.406;19.484;2022-07-23T00:19:11;17.30;99.90
19952;DHT22;10137;49.406;19.484;2022-07-23T00:21:38;17.30;99.90
19952;DHT22;10137;49.406;19.484;2022-07-23T00:24:06;17.40;99.90
19952;DHT22;10137;49.406;19.484;2022-07-23T00:26:34;17.30;99.90
19952;DHT22;10137;49.406;19.484;2022-07-23T00:29:01;17.20;99.90
19952;DHT22;10137;49.406;19.484;2022-07-23T00:31:28;17.20;99.90
19952;DHT22;10137;49.406;19.484;2022-07-23T00:33:55;17.10;99.90
19952;DHT22;10137;49.406;19.484;2022-07-23T00:36:24;17.20;99.90
19952;DHT22;10137;49.406;19.484;2022-07-23T00:38:51;17.10;99.90
19952;DHT22;10137;49.406;19.484;2022-07-23T00:41:19;17.00;99.90
19952;DHT22;10137;49.406;19.484;2022-07-23T00:43:47;16.90;99.90
19952;DHT22;10137;49.406;19.484;2022-07-23T00:46:19;16.90;99.90
19952;DHT22;10137;49.406;19.484;2022-07-23T00:48:48;16.80;99.90
19952;DHT22;10137;49.406;19.484;2022-07-23T00:51:17;16.80;99.90
19952;DHT22;10137;49.406;19.484;2022-07-23T00:53:46;16.90;99.90
19952;DHT22;10137;49.406;19.484;2022-07-23T00:56:15;16.90;99.90
19952;DHT22;10137;49.406;19.484;2022-07-23T00:58:43;16.90;99.90
19952;DHT22;10137;49.406;19.484;2022-07-23T01:01:11;16.90;99.90
19952;DHT22;10137;49.406;19.484;2022-07-23T01:03:39;17.00;99.90
19952;DHT22;10137;49.406;19.484;2022-07-23T01:06:08;16.90;99.90
19952;DHT22;10137;49.406;19.484;2022-07-23T01:08:36;16.90;99.90
19952;DHT22;10137;49.406;19.484;2022-07-23T01:11:05;16.80;99.90
19952;DHT22;10137;49.406;19.484;2022-07-23T01:13:33;16.80;99.90
19952;DHT22;10137;49.406;19.484;2022-07-23T01:16:00;16.80;99.90
19952;DHT22;10137;49.406;19.484;2022-07-23T01:18:28;16.70;99.90
19952;DHT22;10137;49.406;19.484;2022-07-23T01:20:57;16.60;99.90
19952;DHT22;10137;49.406;19.484;2022-07-23T01:23:25;16.60;99.90
19952;DHT22;10137;49.406;19.484;2022-07-23T01:25:53;16.50;99.90
19952;DHT22;10137;49.406;19.484;2022-07-23T01:28:21;16.60;99.90
19952;DHT22;10137;49.406;19.484;2022-07-23T01:30:48;16.60;99.90
19952;DHT22;10137;49.406;19.484;2022-07-23T01:33:15;16.60;99.90
19952;DHT22;10137;49.406;19.484;2022-07-23T01:35:42;16.50;99.90
19952;DHT22;10137;49.406;19.484;2022-07-23T01:38:10;16.40;99.90
19952;DHT22;10137;49.406;19.484;2022-07-23T01:40:40;16.30;99.90
19952;DHT22;10137;49.406;19.484;2022-07-23T01:43:07;16.30;99.90
19952;DHT22;10137;49.406;19.484;2022-07-23T01:45:35;16.30;99.90
19952;DHT22;10137;49.406;19.484;2022-07-23T01:48:02;16.30;99.90
19952;DHT22;10137;49.406;19.484;2022-07-23T01:50:29;16.20;99.90
19952;DHT22;10137;49.406;19.484;2022-07-23T01:52:56;16.30;99.90
19952;DHT22;10137;49.406;19.484;2022-07-23T01:55:25;16.20;99.90
19952;DHT22;10137;49.406;19.484;2022-07-23T01:57:53;16.20;99.90
19952;DHT22;10137;49.406;19.484;2022-07-23T02:00:20;16.20;99.90
19952;DHT22;10137;49.406;19.484;2022-07-23T02:02:49;16.20;99.90
19952;DHT22;10137;49.406;19.484;2022-07-23T02:05:17;16.20;99.90
19952;DHT22;10137;49.406;19.484;2022-07-23T02:07:44;16.10;99.90
19952;DHT22;10137;49.406;19.484;2022-07-23T02:10:12;16.00;99.90
19952;DHT22;10137;49.406;19.484;2022-07-23T02:12:39;15.90;99.90
19952;DHT22;10137;49.406;19.484;2022-07-23T02:15:09;15.90;99.90
19952;DHT22;10137;49.406;19.484;2022-07-23T02:17:36;15.80;99.90
19952;DHT22;10137;49.406;19.484;2022-07-23T02:20:05;15.80;99.90
19952;DHT22;10137;49.406;19.484;2022-07-23T02:22:32;15.80;99.90
19952;DHT22;10137;49.406;19.484;2022-07-23T02:24:59;15.80;99.90
19952;DHT22;10137;49.406;19.484;2022-07-23T02:27:26;15.80;99.90
19952;DHT22;10137;49.406;19.484;2022-07-23T02:29:54;15.90;99.90
19952;DHT22;10137;49.406;19.484;2022-07-23T02:32:23;15.70;99.90
19952;DHT22;10137;49.406;19.484;2022-07-23T02:34:50;15.60;99.90
19952;DHT22;10137;49.406;19.484;2022-07-23T02:37:18;15.60;99.90
19952;DHT22;10137;49.406;19.484;2022-07-23T02:39:47;15.50;99.90
19952;DHT22;10137;49.406;19.484;2022-07-23T02:42:14;15.50;99.90
19952;DHT22;10137;49.406;19.484;2022-07-23T02:44:41;15.40;99.90
19952;DHT22;10137;49.406;19.484;2022-07-23T02:47:09;15.30;99.90
19952;DHT22;10137;49.406;19.484;2022-07-23T02:49:37;15.30;99.90
19952;DHT22;10137;49.406;19.484;2022-07-23T02:52:04;15.40;99.90
19952;DHT22;10137;49.406;19.484;2022-07-23T02:54:31;15.50;99.90
19952;DHT22;10137;49.406;19.484;2022-07-23T02:56:59;15.50;99.90
19952;DHT22;10137;49.406;19.484;2022-07-23T02:59:26;15.40;99.90
19952;DHT22;10137;49.406;19.484;2022-07-23T03:01:53;15.40;99.90
19952;DHT22;10137;49.406;19.484;2022-07-23T03:04:22;15.30;99.90
19952;DHT22;10137;49.406;19.484;2022-07-23T03:06:51;15.30;99.90
19952;DHT22;10137;49.406;19.484;2022-07-23T03:09:18;15.40;99.90
19952;DHT22;10137;49.406;19.484;2022-07-23T03:11:45;15.40;99.90
19952;DHT22;10137;49.406;19.484;2022-07-23T03:14:12;15.30;99.90
19952;DHT22;10137;49.406;19.484;2022-07-23T03:16:41;15.30;99.90
19952;DHT22;10137;49.406;19.484;2022-07-23T03:19:08;15.30;99.90
19952;DHT22;10137;49.406;19.484;2022-07-23T03:21:37;15.30;99.90
19952;DHT22;10137;49.406;19.484;2022-07-23T03:24:08;15.30;99.90
19952;DHT22;10137;49.406;19.484;2022-07-23T03:26:36;15.40;99.90
19952;DHT22;10137;49.406;19.484;2022-07-23T03:29:03;15.40;99.90
19952;DHT22;10137;49.406;19.484;2022-07-23T03:31:30;15.50;99.90
19952;DHT22;10137;49.406;19.484;2022-07-23T03:33:57;15.60;99.90
19952;DHT22;10137;49.406;19.484;2022-07-23T03:36:26;15.70;99.90
19952;DHT22;10137;49.406;19.484;2022-07-23T03:38:54;15.70;99.90
19952;DHT22;10137;49.406;19.484;2022-07-23T03:41:23;15.80;99.90
19952;DHT22;10137;49.406;19.484;2022-07-23T03:43:51;15.90;99.90
19952;DHT22;10137;49.406;19.484;2022-07-23T03:46:19;16.00;99.90
19952;DHT22;10137;49.406;19.484;2022-07-23T03:48:47;16.00;99.90
19952;DHT22;10137;49.406;19.484;2022-07-23T03:51:14;16.10;99.90
19952;DHT22;10137;49.406;19.484;2022-07-23T03:53:44;16.20;99.90
19952;DHT22;10137;49.406;19.484;2022-07-23T03:56:12;16.20;99.90
19952;DHT22;10137;49.406;19.484;2022-07-23T03:58:41;16.30;99.90
19952;DHT22;10137;49.406;19.484;2022-07-23T04:01:08;16.30;99.90
19952;DHT22;10137;49.406;19.484;2022-07-23T04:03:36;16.40;99.90
19952;DHT22;10137;49.406;19.484;2022-07-23T04:06:04;16.40;99.90
19952;DHT22;10137;49.406;19.484;2022-07-23T04:08:32;16.40;99.90
19952;DHT22;10137;49.406;19.484;2022-07-23T04:11:00;16.50;99.90
19952;DHT22;10137;49.406;19.484;2022-07-23T04:13:28;16.60;99.90
19952;DHT22;10137;49.406;19.484;2022-07-23T04:15:56;16.50;99.90
19952;DHT22;10137;49.406;19.484;2022-07-23T04:18:23;16.70;99.90
19952;DHT22;10137;49.406;19.484;2022-07-23T04:20:52;16.80;99.90
19952;DHT22;10137;49.406;19.484;2022-07-23T04:23:19;17.00;99.90
19952;DHT22;10137;49.406;19.484;2022-07-23T04:25:47;17.00;99.90
19952;DHT22;10137;49.406;19.484;2022-07-23T04:28:14;17.10;99.90
19952;DHT22;10137;49.406;19.484;2022-07-23T04:30:41;17.20;99.90
19952;DHT22;10137;49.406;19.484;2022-07-23T04:33:09;17.30;99.90
19952;DHT22;10137;49.406;19.484;2022-07-23T04:35:37;17.30;99.90
19952;DHT22;10137;49.406;19.484;2022-07-23T04:38:04;17.30;99.90
19952;DHT22;10137;49.406;19.484;2022-07-23T04:40:32;17.30;99.90
19952;DHT22;10137;49.406;19.484;2022-07-23T04:42:59;17.30;99.90
19952;DHT22;10137;49.406;19.484;2022-07-23T04:45:27;17.30;99.90
19952;DHT22;10137;49.406;19.484;2022-07-23T04:47:54;17.30;99.90
19952;DHT22;10137;49.406;19.484;2022-07-23T04:50:24;17.20;99.90
19952;DHT22;10137;49.406;19.484;2022-07-23T04:52:52;17.40;99.90
19952;DHT22;10137;49.406;19.484;2022-07-23T04:55:20;17.50;99.90
19952;DHT22;10137;49.406;19.484;2022-07-23T04:57:47;17.60;99.90
19952;DHT22;10137;49.406;19.484;2022-07-23T05:00:15;17.70;99.90
19952;DHT22;10137;49.406;19.484;2022-07-23T05:02:43;17.80;99.90
19952;DHT22;10137;49.406;19.484;2022-07-23T05:05:11;17.90;99.90
19952;DHT22;10137;49.406;19.484;2022-07-23T05:07:39;18.00;99.90
19952;DHT22;10137;49.406;19.484;2022-07-23T05:10:07;18.00;99.90
19952;DHT22;10137;49.406;19.484;2022-07-23T05:12:34;17.90;99.90
19952;DHT22;10137;49.406;19.484;2022-07-23T05:15:03;17.80;99.90
19952;DHT22;10137;49.406;19.484;2022-07-23T05:17:30;17.70;99.90
19952;DHT22;10137;49.406;19.484;2022-07-23T05:19:58;17.80;99.90
19952;DHT22;10137;49.406;19.484;2022-07-23T05:22:26;17.90;99.90
19952;DHT22;10137;49.406;19.484;2022-07-23T05:24:54;17.80;99.90
19952;DHT22;10137;49.406;19.484;2022-07-23T05:27:21;17.70;99.90
19952;DHT22;10137;49.406;19.484;2022-07-23T05:29:49;17.70;99.90
19952;DHT22;10137;49.406;19.484;2022-07-23T05:32:16;17.60;99.90
19952;DHT22;10137;49.406;19.484;2022-07-23T05:34:44;17.90;99.90
19952;DHT22;10137;49.406;19.484;2022-07-23T05:37:17;18.20;99.90
19952;DHT22;10137;49.406;19.484;2022-07-23T05:39:46;18.40;99.90
19952;DHT22;10137;49.406;19.484;2022-07-23T05:42:16;18.70;99.90
19952;DHT22;10137;49.406;19.484;2022-07-23T05:44:45;18.80;99.90
19952;DHT22;10137;49.406;19.484;2022-07-23T05:47:16;18.80;99.90
19952;DHT22;10137;49.406;19.484;2022-07-23T05:49:44;18.90;99.90
19952;DHT22;10137;49.406;19.484;2022-07-23T05:52:12;19.10;99.90
19952;DHT22;10137;49.406;19.484;2022-07-23T05:54:41;19.40;99.90
19952;DHT22;10137;49.406;19.484;2022-07-23T05:57:10;19.60;99.90
19952;DHT22;10137;49.406;19.484;2022-07-23T05:59:40;19.70;99.90
19952;DHT22;10137;49.406;19.484;2022-07-23T06:02:10;19.90;99.90
19952;DHT22;10137;49.406;19.484;2022-07-23T06:04:37;20.00;99.90
19952;DHT22;10137;49.406;19.484;2022-07-23T06:07:09;20.10;99.90
19952;DHT22;10137;49.406;19.484;2022-07-23T06:09:39;20.20;99.90
19952;DHT22;10137;49.406;19.484;2022-07-23T06:12:07;20.30;99.90
19952;DHT22;10137;49.406;19.484;2022-07-23T06:14:35;20.50;99.90
19952;DHT22;10137;49.406;19.484;2022-07-23T06:17:04;20.50;99.90
19952;DHT22;10137;49.406;19.484;2022-07-23T06:19:32;20.60;99.90
19952;DHT22;10137;49.406;19.484;2022-07-23T06:21:59;20.90;99.90
19952;DHT22;10137;49.406;19.484;2022-07-23T06:24:27;21.20;99.90
19952;DHT22;10137;49.406;19.484;2022-07-23T06:26:55;21.30;99.90
19952;DHT22;10137;49.406;19.484;2022-07-23T06:29:22;21.30;99.90
19952;DHT22;10137;49.406;19.484;2022-07-23T06:31:50;21.20;99.90
19952;DHT22;10137;49.406;19.484;2022-07-23T06:34:18;21.60;99.90
19952;DHT22;10137;49.406;19.484;2022-07-23T06:36:45;21.60;99.90
19952;DHT22;10137;49.406;19.484;2022-07-23T06:39:12;21.90;99.90
19952;DHT22;10137;49.406;19.484;2022-07-23T06:41:40;22.30;99.90
19952;DHT22;10137;49.406;19.484;2022-07-23T06:44:08;22.10;99.90
19952;DHT22;10137;49.406;19.484;2022-07-23T06:46:36;22.10;99.90
19952;DHT22;10137;49.406;19.484;2022-07-23T06:49:04;21.60;99.90
19952;DHT22;10137;49.406;19.484;2022-07-23T06:51:33;21.70;99.90
19952;DHT22;10137;49.406;19.484;2022-07-23T06:54:01;22.10;99.90
19952;DHT22;10137;49.406;19.484;2022-07-23T06:56:30;22.40;99.90
19952;DHT22;10137;49.406;19.484;2022-07-23T06:58:58;22.60;99.90
19952;DHT22;10137;49.406;19.484;2022-07-23T07:01:26;22.80;99.90
19952;DHT22;10137;49.406;19.484;2022-07-23T07:03:55;23.10;99.90
19952;DHT22;10137;49.406;19.484;2022-07-23T07:06:22;23.40;99.90
19952;DHT22;10137;49.406;19.484;2022-07-23T07:08:52;23.50;99.90
19952;DHT22;10137;49.406;19.484;2022-07-23T07:11:20;23.80;99.90
19952;DHT22;10137;49.406;19.484;2022-07-23T07:13:48;23.50;99.90
19952;DHT22;10137;49.406;19.484;2022-07-23T07:16:15;23.80;99.90
19952;DHT22;10137;49.406;19.484;2022-07-23T07:18:42;24.10;99.90
19952;DHT22;10137;49.406;19.484;2022-07-23T07:21:10;24.30;99.90
19952;DHT22;10137;49.406;19.484;2022-07-23T07:23:38;24.50;99.90
19952;DHT22;10137;49.406;19.484;2022-07-23T07:26:07;24.60;99.90
19952;DHT22;10137;49.406;19.484;2022-07-23T07:28:34;24.90;99.90
19952;DHT22;10137;49.406;19.484;2022-07-23T07:31:02;25.00;99.90
19952;DHT22;10137;49.406;19.484;2022-07-23T07:33:30;25.20;99.90
19952;DHT22;10137;49.406;19.484;2022-07-23T07:35:59;25.20;99.90
19952;DHT22;10137;49.406;19.484;2022-07-23T07:38:27;25.40;99.90
19952;DHT22;10137;49.406;19.484;2022-07-23T07:40:55;25.50;99.90
19952;DHT22;10137;49.406;19.484;2022-07-23T07:43:29;25.80;99.90
19952;DHT22;10137;49.406;19.484;2022-07-23T07:45:59;25.90;99.90
19952;DHT22;10137;49.406;19.484;2022-07-23T07:48:28;25.90;99.90
19952;DHT22;10137;49.406;19.484;2022-07-23T07:50:56;26.20;99.90
19952;DHT22;10137;49.406;19.484;2022-07-23T07:53:24;26.50;99.90
19952;DHT22;10137;49.406;19.484;2022-07-23T07:55:53;26.60;99.90
19952;DHT22;10137;49.406;19.484;2022-07-23T07:58:20;26.60;99.90
19952;DHT22;10137;49.406;19.484;2022-07-23T08:00:49;26.30;99.90
19952;DHT22;10137;49.406;19.484;2022-07-23T08:03:16;26.50;99.90
19952;DHT22;10137;49.406;19.484;2022-07-23T08:05:45;26.50;99.90
19952;DHT22;10137;49.406;19.484;2022-07-23T08:08:12;26.70;99.90
19952;DHT22;10137;49.406;19.484;2022-07-23T08:10:40;26.90;99.90
19952;DHT22;10137;49.406;19.484;2022-07-23T08:13:13;26.90;99.90
19952;DHT22;10137;49.406;19.484;2022-07-23T08:15:43;27.10;99.90
19952;DHT22;10137;49.406;19.484;2022-07-23T08:18:16;27.10;99.90
19952;DHT22;10137;49.406;19.484;2022-07-23T08:20:44;27.20;99.90
19952;DHT22;10137;49.406;19.484;2022-07-23T08:23:12;27.50;99.90
19952;DHT22;10137;49.406;19.484;2022-07-23T08:25:41;27.60;99.90
19952;DHT22;10137;49.406;19.484;2022-07-23T08:28:11;27.60;99.90
19952;DHT22;10137;49.406;19.484;2022-07-23T08:30:41;28.00;99.90
19952;DHT22;10137;49.406;19.484;2022-07-23T08:33:14;28.00;99.90
19952;DHT22;10137;49.406;19.484;2022-07-23T08:35:44;27.90;99.90
19952;DHT22;10137;49.406;19.484;2022-07-23T08:38:14;27.80;99.90
19952;DHT22;10137;49.406;19.484;2022-07-23T08:40:46;27.70;99.90
19952;DHT22;10137;49.406;19.484;2022-07-23T08:43:17;27.70;99.90
19952;DHT22;10137;49.406;19.484;2022-07-23T08:45:47;27.60;99.90
19952;DHT22;10137;49.406;19.484;2022-07-23T08:48:18;27.70;99.90
19952;DHT22;10137;49.406;19.484;2022-07-23T08:50:49;27.60;99.90
19952;DHT22;10137;49.406;19.484;2022-07-23T08:53:18;27.80;99.90
19952;DHT22;10137;49.406;19.484;2022-07-23T08:55:47;28.00;99.90
19952;DHT22;10137;49.406;19.484;2022-07-23T08:58:16;28.50;99.90
19952;DHT22;10137;49.406;19.484;2022-07-23T09:00:44;28.50;99.90
19952;DHT22;10137;49.406;19.484;2022-07-23T09:03:17;28.90;99.90
19952;DHT22;10137;49.406;19.484;2022-07-23T09:05:46;29.00;99.90
19952;DHT22;10137;49.406;19.484;2022-07-23T09:08:15;29.50;99.90
19952;DHT22;10137;49.406;19.484;2022-07-23T09:10:46;29.60;99.90
19952;DHT22;10137;49.406;19.484;2022-07-23T09:13:36;29.60;99.90
19952;DHT22;10137;49.406;19.484;2022-07-23T09:16:07;29.50;99.90
19952;DHT22;10137;49.406;19.484;2022-07-23T09:18:39;29.40;99.90
19952;DHT22;10137;49.406;19.484;2022-07-23T09:21:19;29.20;99.90
19952;DHT22;10137;49.406;19.484;2022-07-23T09:23:51;29.20;99.90
19952;DHT22;10137;49.406;19.484;2022-07-23T09:26:34;29.10;99.90
19952;DHT22;10137;49.406;19.484;2022-07-23T09:29:06;29.30;99.90
19952;DHT22;10137;49.406;19.484;2022-07-23T09:31:45;29.50;99.90
19952;DHT22;10137;49.406;19.484;2022-07-23T09:34:18;29.60;99.90
19952;DHT22;10137;49.406;19.484;2022-07-23T09:36:47;29.70;99.90
19952;DHT22;10137;49.406;19.484;2022-07-23T09:39:16;29.60;99.90
19952;DHT22;10137;49.406;19.484;2022-07-23T09:41:49;29.70;99.90
19952;DHT22;10137;49.406;19.484;2022-07-23T09:44:18;29.70;99.90
19952;DHT22;10137;49.406;19.484;2022-07-23T09:46:48;29.90;99.90
19952;DHT22;10137;49.406;19.484;2022-07-23T09:49:22;29.70;99.90
19952;DHT22;10137;49.406;19.484;2022-07-23T09:51:55;29.60;99.90
19952;DHT22;10137;49.406;19.484;2022-07-23T09:54:30;29.90;99.90
19952;DHT22;10137;49.406;19.484;2022-07-23T09:57:03;30.00;99.90
19952;DHT22;10137;49.406;19.484;2022-07-23T09:59:34;30.00;99.90
19952;DHT22;10137;49.406;19.484;2022-07-23T10:02:07;30.30;99.90
19952;DHT22;10137;49.406;19.484;2022-07-23T10:04:39;30.40;99.90
19952;DHT22;10137;49.406;19.484;2022-07-23T10:07:09;30.70;99.90
19952;DHT22;10137;49.406;19.484;2022-07-23T10:09:40;30.90;99.90
19952;DHT22;10137;49.406;19.484;2022-07-23T10:12:11;30.70;99.90
19952;DHT22;10137;49.406;19.484;2022-07-23T10:14:45;31.10;99.90
19952;DHT22;10137;49.406;19.484;2022-07-23T10:17:12;31.10;95.90
19952;DHT22;10137;49.406;19.484;2022-07-23T10:19:41;31.20;97.10
19952;DHT22;10137;49.406;19.484;2022-07-23T10:22:12;31.20;94.30
19952;DHT22;10137;49.406;19.484;2022-07-23T10:27:56;31.00;91.10
19952;DHT22;10137;49.406;19.484;2022-07-23T10:30:49;31.20;92.20
19952;DHT22;10137;49.406;19.484;2022-07-23T10:33:31;31.60;85.30
19952;DHT22;10137;49.406;19.484;2022-07-23T10:36:09;31.80;82.40
19952;DHT22;10137;49.406;19.484;2022-07-23T10:38:48;31.60;84.30
19952;DHT22;10137;49.406;19.484;2022-07-23T10:41:31;31.60;84.90
19952;DHT22;10137;49.406;19.484;2022-07-23T10:44:09;31.50;86.00
19952;DHT22;10137;49.406;19.484;2022-07-23T10:46:56;31.00;89.40
19952;DHT22;10137;49.406;19.484;2022-07-23T10:49:35;30.70;88.90
19952;DHT22;10137;49.406;19.484;2022-07-23T10:52:23;30.60;90.30
19952;DHT22;10137;49.406;19.484;2022-07-23T10:54:54;30.90;90.70
19952;DHT22;10137;49.406;19.484;2022-07-23T10:57:22;30.70;88.30
19952;DHT22;10137;49.406;19.484;2022-07-23T11:00:20;30.50;88.20
19952;DHT22;10137;49.406;19.484;2022-07-23T11:02:50;30.90;83.10
19952;DHT22;10137;49.406;19.484;2022-07-23T11:05:19;31.10;85.10
19952;DHT22;10137;49.406;19.484;2022-07-23T11:08:19;30.60;82.10
19952;DHT22;10137;49.406;19.484;2022-07-23T11:10:53;30.60;80.70
19952;DHT22;10137;49.406;19.484;2022-07-23T11:13:30;30.60;83.10
19952;DHT22;10137;49.406;19.484;2022-07-23T11:16:10;30.60;78.30
19952;DHT22;10137;49.406;19.484;2022-07-23T11:18:58;30.90;78.70
19952;DHT22;10137;49.406;19.484;2022-07-23T11:21:47;30.90;80.40
19952;DHT22;10137;49.406;19.484;2022-07-23T11:24:19;31.10;80.00
19952;DHT22;10137;49.406;19.484;2022-07-23T11:29:47;31.30;78.60
19952;DHT22;10137;49.406;19.484;2022-07-23T11:32:44;31.50;78.40
19952;DHT22;10137;49.406;19.484;2022-07-23T11:35:24;31.80;75.50
19952;DHT22;10137;49.406;19.484;2022-07-23T11:38:02;32.10;75.90
19952;DHT22;10137;49.406;19.484;2022-07-23T11:40:33;32.20;71.40
19952;DHT22;10137;49.406;19.484;2022-07-23T11:43:02;32.40;71.00
19952;DHT22;10137;49.406;19.484;2022-07-23T11:45:35;32.40;72.30
19952;DHT22;10137;49.406;19.484;2022-07-23T11:48:05;32.40;70.10
19952;DHT22;10137;49.406;19.484;2022-07-23T11:50:34;32.20;69.00
19952;DHT22;10137;49.406;19.484;2022-07-23T11:53:03;32.40;69.70
19952;DHT22;10137;49.406;19.484;2022-07-23T11:55:32;32.40;69.70
19952;DHT22;10137;49.406;19.484;2022-07-23T11:58:00;32.60;67.90
19952;DHT22;10137;49.406;19.484;2022-07-23T12:00:30;32.70;68.40
19952;DHT22;10137;49.406;19.484;2022-07-23T12:03:00;32.70;66.50
19952;DHT22;10137;49.406;19.484;2022-07-23T12:05:30;32.70;66.30
19952;DHT22;10137;49.406;19.484;2022-07-23T12:07:59;32.70;65.10
19952;DHT22;10137;49.406;19.484;2022-07-23T12:10:30;32.80;65.20
19952;DHT22;10137;49.406;19.484;2022-07-23T12:13:04;32.80;63.60
19952;DHT22;10137;49.406;19.484;2022-07-23T12:15:39;32.70;63.70
19952;DHT22;10137;49.406;19.484;2022-07-23T12:18:11;32.80;66.50
19952;DHT22;10137;49.406;19.484;2022-07-23T12:20:41;32.70;65.30
19952;DHT22;10137;49.406;19.484;2022-07-23T12:23:12;32.70;64.70
19952;DHT22;10137;49.406;19.484;2022-07-23T12:25:42;32.60;63.70
19952;DHT22;10137;49.406;19.484;2022-07-23T12:28:13;32.80;64.10
19952;DHT22;10137;49.406;19.484;2022-07-23T12:30:41;33.00;65.00
19952;DHT22;10137;49.406;19.484;2022-07-23T12:33:12;32.70;65.50
19952;DHT22;10137;49.406;19.484;2022-07-23T12:35:43;32.10;70.20
19952;DHT22;10137;49.406;19.484;2022-07-23T12:38:13;31.80;72.40
19952;DHT22;10137;49.406;19.484;2022-07-23T12:40:45;31.50;72.70
19952;DHT22;10137;49.406;19.484;2022-07-23T12:43:21;31.40;75.60
19952;DHT22;10137;49.406;19.484;2022-07-23T12:45:51;31.30;76.00
19952;DHT22;10137;49.406;19.484;2022-07-23T12:48:22;31.20;77.80
19952;DHT22;10137;49.406;19.484;2022-07-23T12:50:56;31.10;77.80
19952;DHT22;10137;49.406;19.484;2022-07-23T12:53:27;31.10;80.30
19952;DHT22;10137;49.406;19.484;2022-07-23T12:56:03;31.10;82.30
19952;DHT22;10137;49.406;19.484;2022-07-23T12:58:47;31.10;75.00
19952;DHT22;10137;49.406;19.484;2022-07-23T13:01:28;30.60;73.50
19952;DHT22;10137;49.406;19.484;2022-07-23T13:04:00;28.80;79.50
19952;DHT22;10137;49.406;19.484;2022-07-23T13:06:33;27.60;86.80
19952;DHT22;10137;49.406;19.484;2022-07-23T13:09:03;26.90;93.60
19952;DHT22;10137;49.406;19.484;2022-07-23T13:11:32;26.50;99.90
19952;DHT22;10137;49.406;19.484;2022-07-23T13:14:02;26.40;99.90
19952;DHT22;10137;49.406;19.484;2022-07-23T13:16:32;26.30;99.90
19952;DHT22;10137;49.406;19.484;2022-07-23T13:19:01;26.10;99.90
19952;DHT22;10137;49.406;19.484;2022-07-23T13:21:32;26.00;99.90
19952;DHT22;10137;49.406;19.484;2022-07-23T13:24:00;26.20;99.90
19952;DHT22;10137;49.406;19.484;2022-07-23T13:26:28;26.70;99.90
19952;DHT22;10137;49.406;19.484;2022-07-23T13:28:55;28.30;99.90
19952;DHT22;10137;49.406;19.484;2022-07-23T13:31:26;29.20;99.90
19952;DHT22;10137;49.406;19.484;2022-07-23T13:33:54;29.50;96.70
19952;DHT22;10137;49.406;19.484;2022-07-23T13:36:23;29.70;93.50
19952;DHT22;10137;49.406;19.484;2022-07-23T13:38:51;29.70;92.30
19952;DHT22;10137;49.406;19.484;2022-07-23T13:41:19;29.80;93.00
19952;DHT22;10137;49.406;19.484;2022-07-23T13:43:47;29.70;95.70
19952;DHT22;10137;49.406;19.484;2022-07-23T13:46:15;29.60;97.80
19952;DHT22;10137;49.406;19.484;2022-07-23T13:48:44;29.50;99.90
19952;DHT22;10137;49.406;19.484;2022-07-23T13:51:12;29.40;99.90
19952;DHT22;10137;49.406;19.484;2022-07-23T13:53:40;29.30;99.90
19952;DHT22;10137;49.406;19.484;2022-07-23T13:56:08;29.10;99.90
19952;DHT22;10137;49.406;19.484;2022-07-23T13:58:36;29.00;99.90
19952;DHT22;10137;49.406;19.484;2022-07-23T14:01:07;28.90;99.90
19952;DHT22;10137;49.406;19.484;2022-07-23T14:03:36;28.60;99.90
19952;DHT22;10137;49.406;19.484;2022-07-23T14:06:06;28.30;99.90
19952;DHT22;10137;49.406;19.484;2022-07-23T14:08:34;27.80;99.90
19952;DHT22;10137;49.406;19.484;2022-07-23T14:11:02;27.40;99.90
19952;DHT22;10137;49.406;19.484;2022-07-23T14:13:30;27.20;99.90
19952;DHT22;10137;49.406;19.484;2022-07-23T14:15:58;26.70;99.90
19952;DHT22;10137;49.406;19.484;2022-07-23T14:18:26;26.60;99.90
19952;DHT22;10137;49.406;19.484;2022-07-23T14:20:54;26.50;99.90
19952;DHT22;10137;49.406;19.484;2022-07-23T14:23:23;26.30;99.90
19952;DHT22;10137;49.406;19.484;2022-07-23T14:25:51;26.20;99.90
19952;DHT22;10137;49.406;19.484;2022-07-23T14:28:17;26.30;99.90
19952;DHT22;10137;49.406;19.484;2022-07-23T14:30:46;26.30;99.90
19952;DHT22;10137;49.406;19.484;2022-07-23T14:33:15;26.40;99.90
19952;DHT22;10137;49.406;19.484;2022-07-23T14:35:43;26.30;99.90
19952;DHT22;10137;49.406;19.484;2022-07-23T14:38:11;26.30;99.90
19952;DHT22;10137;49.406;19.484;2022-07-23T14:40:44;25.90;99.90
19952;DHT22;10137;49.406;19.484;2022-07-23T14:43:12;26.00;99.90
19952;DHT22;10137;49.406;19.484;2022-07-23T14:45:40;25.90;99.90
19952;DHT22;10137;49.406;19.484;2022-07-23T14:48:08;25.80;99.90
19952;DHT22;10137;49.406;19.484;2022-07-23T14:50:36;25.70;99.90
19952;DHT22;10137;49.406;19.484;2022-07-23T14:53:06;25.60;99.90
19952;DHT22;10137;49.406;19.484;2022-07-23T14:55:35;25.70;99.90
19952;DHT22;10137;49.406;19.484;2022-07-23T14:58:03;25.60;99.90
19952;DHT22;10137;49.406;19.484;2022-07-23T15:00:31;25.60;99.90
19952;DHT22;10137;49.406;19.484;2022-07-23T15:02:58;25.70;99.90
19952;DHT22;10137;49.406;19.484;2022-07-23T15:05:27;25.70;99.90
19952;DHT22;10137;49.406;19.484;2022-07-23T15:07:56;25.70;99.90
19952;DHT22;10137;49.406;19.484;2022-07-23T15:10:24;25.90;99.90
19952;DHT22;10137;49.406;19.484;2022-07-23T15:12:52;26.10;99.90
19952;DHT22;10137;49.406;19.484;2022-07-23T15:15:22;26.30;99.90
19952;DHT22;10137;49.406;19.484;2022-07-23T15:17:50;26.50;99.90
19952;DHT22;10137;49.406;19.484;2022-07-23T15:20:18;26.50;99.90
19952;DHT22;10137;49.406;19.484;2022-07-23T15:22:46;26.40;99.90
19952;DHT22;10137;49.406;19.484;2022-07-23T15:25:14;26.40;99.90
19952;DHT22;10137;49.406;19.484;2022-07-23T15:27:42;26.40;99.90
19952;DHT22;10137;49.406;19.484;2022-07-23T15:30:11;26.40;99.90
19952;DHT22;10137;49.406;19.484;2022-07-23T15:32:42;26.40;99.90
19952;DHT22;10137;49.406;19.484;2022-07-23T15:35:13;26.30;99.90
19952;DHT22;10137;49.406;19.484;2022-07-23T15:37:45;26.20;99.90